Flight Track Log - Related Links

Times and Time Zones

All times are in EDT time to prevent confusion due to time zone crossing. See the UAL289 flight status page for this flight to view local times or setup timezone preferences in your user account.

Time Position Orientation Groundspeed Altitude Reporting Facility
EDT Latitude Longitude Course Direction KTS MPH feet Rate Location/Type
Mon 10:56:04 PM 39.9000 -104.7500 247° West 236 272 9,000  Level Denver TRACON
Mon 10:57:00 PM 39.7355 -105.0401 245° Southwest  Level FlightAware Approximate
Mon 10:57:04 PM 39.8667 -104.8333 242° Southwest 271 312 10,700  Level Denver TRACON
Mon 10:58:00 PM 39.6912 -105.1618 245° Southwest  Level FlightAware Approximate
Mon 10:58:04 PM 39.8167 -104.9333 237° Southwest 327 376 12,200  Level Denver TRACON
Mon 10:59:00 PM 39.6523 -105.2861 243° Southwest  Level FlightAware Approximate
Mon 10:59:16 PM 39.7669 -105.0700 245° Southwest 346 398 15,100  Level Denver Center
Mon 11:00:00 PM 39.6045 -105.4054 243° Southwest  Level FlightAware Approximate
Mon 11:00:18 PM 39.7217 -105.1864 243° Southwest 363 418 17,300  Level Denver Center
Mon 11:01:00 PM 39.5679 -105.5297 247° West  Level FlightAware Approximate
Mon 11:01:19 PM 39.6742 -105.3056 243° Southwest 371 427 20,200  Level Denver Center
Mon 11:02:21 PM 39.6303 -105.4161 243° Southwest 320 368 22,900 2,098 Climbing Denver Center
Mon 11:03:22 PM 39.5881 -105.5233 243° Southwest 322 371 24,500 1,610 Climbing Denver Center
Mon 11:04:24 PM 39.5461 -105.6294 243° Southwest 329 379 26,200 1,610 Climbing Denver Center
Mon 11:05:25 PM 39.5156 -105.7478 252° West 343 395 27,800 1,707 Climbing Denver Center
Mon 11:06:27 PM 39.4850 -105.8631 251° West 336 387 29,700 1,707 Climbing Denver Center
Mon 11:07:28 PM 39.4519 -105.9792 250° West 340 391 31,300 1,366 Climbing Denver Center
Mon 11:08:30 PM 39.4183 -106.0972 250° West 346 398 32,500 1,268 Climbing Denver Center
Mon 11:09:31 PM 39.3828 -106.2244 250° West 355 409 33,900 1,317 Climbing Denver Center
Mon 11:10:33 PM 39.3428 -106.3356 245° Southwest 355 409 35,200 1,024 Climbing Denver Center
Mon 11:11:34 PM 39.2786 -106.4547 235° Southwest 362 417 36,000 390 Climbing Denver Center
Mon 11:12:36 PM 39.2308 -106.5594 240° Southwest 356 410 36,000  Level Denver Center
Mon 11:13:37 PM 39.1814 -106.6653 239° Southwest 358 412 36,000  Level Denver Center
Mon 11:14:39 PM 39.1183 -106.7883 237° Southwest 366 421 36,000  Level Denver Center
Mon 11:15:40 PM 39.0636 -106.8950 237° Southwest 371 427 36,000  Level Denver Center
Mon 11:16:42 PM 39.0028 -107.0197 238° Southwest 370 426 36,000 435 Level Denver Center
Mon 11:17:44 PM 38.9478 -107.1258 236° Southwest 371 427 36,900 829 Climbing Denver Center
Mon 11:18:45 PM 38.8944 -107.2314 237° Southwest 369 425 37,700 537 Climbing Denver Center
Mon 11:19:47 PM 38.8328 -107.3533 237° Southwest 367 422 38,000 146 Climbing Denver Center
Mon 11:20:48 PM 38.7778 -107.4589 236° Southwest 370 426 38,000  Level Denver Center
Mon 11:21:50 PM 38.7153 -107.5811 237° Southwest 368 423 38,000  Level Denver Center
Mon 11:22:51 PM 38.6608 -107.6883 237° Southwest 371 427 38,000  Level Denver Center
Mon 11:24:05 PM 38.5944 -107.8161 236° Southwest 381 438 38,000  Level Denver Center
Mon 11:25:19 PM 38.5286 -107.9425 236° Southwest 382 440 38,000  Level Denver Center
Mon 11:26:21 PM 38.4536 -108.0858 236° Southwest 378 435 38,000  Level Denver Center
Mon 11:27:22 PM 38.3964 -108.1958 236° Southwest 384 442 38,000  Level Denver Center
Mon 11:28:24 PM 38.3300 -108.3217 236° Southwest 382 440 38,000  Level Denver Center
Mon 11:29:26 PM 38.2719 -108.4297 236° Southwest 383 441 38,000  Level Denver Center
Mon 11:30:27 PM 38.2067 -108.5553 237° Southwest 381 438 38,000  Level Denver Center
Mon 11:31:29 PM 38.1500 -108.6619 236° Southwest 380 437 38,000  Level Denver Center
Mon 11:32:30 PM 38.0933 -108.7686 236° Southwest 379 436 38,000  Level Denver Center
Mon 11:33:32 PM 38.0289 -108.8883 236° Southwest 381 438 38,000  Level Denver Center
Mon 11:34:33 PM 37.9717 -108.9944 236° Southwest 380 437 38,000  Level Denver Center
Mon 11:35:35 PM 37.9050 -109.1197 236° Southwest 383 441 38,000  Level Denver Center
Mon 11:36:36 PM 37.8469 -109.2258 235° Southwest 383 441 38,000  Level Denver Center
Mon 11:37:38 PM 37.7797 -109.3508 236° Southwest 385 443 38,000  Level Denver Center
Mon 11:38:39 PM 37.7203 -109.4575 235° Southwest 387 445 38,000  Level Denver Center
Mon 11:39:41 PM 37.6614 -109.5664 236° Southwest 392 451 38,000  Level Denver Center
Mon 11:40:42 PM 37.5911 -109.6947 235° Southwest 398 458 38,000  Level Denver Center
Mon 11:41:44 PM 37.5292 -109.8064 235° Southwest 406 467 38,000  Level Denver Center
Mon 11:42:45 PM 37.4567 -109.9372 235° Southwest 407 468 38,000  Level Denver Center
Mon 11:43:46 PM 37.3936 -110.0489 235° Southwest 408 470 38,000  Level Denver Center
Mon 11:44:48 PM 37.3231 -110.1769 235° Southwest 402 463 38,000  Level Denver Center
Mon 11:45:49 PM 37.2642 -110.2831 235° Southwest 399 459 38,000  Level Denver Center
Mon 11:46:51 PM 37.2000 -110.3969 235° Southwest 399 459 38,000  Level Denver Center
Mon 11:47:52 PM 37.1369 -110.5092 235° Southwest 395 455 38,000  Level Denver Center
Mon 11:48:54 PM 37.0742 -110.6208 235° Southwest 392 451 38,000  Level Denver Center
Mon 11:49:55 PM 37.0117 -110.7308 235° Southwest 389 448 38,000  Level Denver Center
Mon 11:50:56 PM 36.9364 -110.8639 235° Southwest 390 449 38,000  Level Denver Center
Mon 11:51:58 PM 36.8719 -110.9767 234° Southwest 396 456 38,000  Level Denver Center
Mon 11:52:59 PM 36.8089 -111.0892 235° Southwest 397 457 38,000  Level Denver Center
Mon 11:54:01 PM 36.7447 -111.2014 235° Southwest 397 457 38,000  Level Denver Center
Mon 11:55:02 PM 36.6767 -111.3175 234° Southwest 405 466 38,000  Level Denver Center
Mon 11:56:03 PM 36.6092 -111.4333 234° Southwest 411 473 38,000  Level Denver Center
Mon 11:57:05 PM 36.5419 -111.5497 234° Southwest 412 474 38,000  Level Denver Center
Mon 11:58:06 PM 36.4747 -111.6669 235° Southwest 415 478 38,000  Level Denver Center
Mon 11:59:07 PM 36.4044 -111.7833 233° Southwest 419 482 38,000  Level Denver Center
Tue 12:00:09 AM 36.3361 -111.9008 234° Southwest 419 482 38,000  Level Denver Center
Tue 12:00:25 AM 36.3083 -111.9464 233° Southwest 414 476 38,000  Level Los Angeles Center
Tue 12:01:27 AM 36.2417 -112.0614 234° Southwest 411 473 38,000  Level Los Angeles Center
Tue 12:02:28 AM 36.1758 -112.1719 234° Southwest 419 482 38,000  Level Los Angeles Center
Tue 12:03:30 AM 36.1028 -112.2942 234° Southwest 419 482 38,000  Level Los Angeles Center
Tue 12:04:31 AM 36.0331 -112.4111 234° Southwest 422 486 38,000  Level Los Angeles Center
Tue 12:05:32 AM 35.9633 -112.5294 234° Southwest 425 489 38,000  Level Los Angeles Center
Tue 12:06:46 AM 35.8850 -112.6583 233° Southwest 425 489 38,000  Level Los Angeles Center
Tue 12:07:47 AM 35.8031 -112.7950 234° Southwest 417 480 38,000  Level Los Angeles Center
Tue 12:08:49 AM 35.7353 -112.9075 233° Southwest 415 478 38,000  Level Los Angeles Center
Tue 12:09:50 AM 35.6592 -113.0306 233° Southwest 412 474 38,000  Level Los Angeles Center
Tue 12:10:51 AM 35.5925 -113.1425 234° Southwest 407 468 38,000  Level Los Angeles Center
Tue 12:11:53 AM 35.5247 -113.2542 233° Southwest 406 467 38,000  Level Los Angeles Center
Tue 12:12:54 AM 35.4542 -113.3700 233° Southwest 410 472 38,000  Level Los Angeles Center
Tue 12:13:55 AM 35.3856 -113.4822 233° Southwest 414 476 38,000  Level Los Angeles Center
Tue 12:14:57 AM 35.3161 -113.5950 233° Southwest 417 480 38,000  Level Los Angeles Center
Tue 12:15:58 AM 35.2469 -113.7064 233° Southwest 416 479 38,000 -197 Level Los Angeles Center
Tue 12:16:59 AM 35.1767 -113.8200 233° Southwest 418 481 37,600 -787 Descending Los Angeles Center
Tue 12:18:00 AM 35.0917 -113.9561 233° Southwest 416 479 36,400 -1,317 Descending Los Angeles Center
Tue 12:19:02 AM 35.0208 -114.0697 233° Southwest 420 483 34,900 -1,512 Descending Los Angeles Center
Tue 12:20:03 AM 34.9469 -114.1853 232° Southwest 431 496 33,300 -1,463 Descending Los Angeles Center
Tue 12:21:05 AM 34.8742 -114.3017 233° Southwest 433 498 31,900 -1,377 Descending Los Angeles Center
Tue 12:22:05 AM 34.7997 -114.4189 232° Southwest 438 504 30,500 -934 Descending Los Angeles Center
Tue 12:23:07 AM 34.7192 -114.5286 228° Southwest 436 502 30,000 -244 Descending Los Angeles Center
Tue 12:24:08 AM 34.6267 -114.6306 222° Southwest 434 499 30,000 -49 Level Los Angeles Center
Tue 12:25:09 AM 34.5378 -114.7328 223° Southwest 439 505 29,900  Descending Los Angeles Center
Tue 12:26:10 AM 34.4489 -114.8342 223° Southwest 441 507 30,000  Climbing Los Angeles Center
Tue 12:27:11 AM 34.3589 -114.9358 223° Southwest 443 510 29,900  Descending Los Angeles Center
Tue 12:28:13 AM 34.2697 -115.0375 223° Southwest 441 507 30,000  Climbing Los Angeles Center
Tue 12:29:14 AM 34.1797 -115.1383 223° Southwest 441 507 29,900  Descending Los Angeles Center
Tue 12:30:15 AM 34.0725 -115.2597 223° Southwest 442 509 30,000 49 Climbing Los Angeles Center
Tue 12:31:16 AM 33.9822 -115.3597 223° Southwest 441 507 30,000 -49 Level Los Angeles Center
Tue 12:32:17 AM 33.8919 -115.4603 223° Southwest 442 509 29,900 -293 Descending Los Angeles Center
Tue 12:33:19 AM 33.8033 -115.5606 223° Southwest 439 505 29,400 -829 Descending Los Angeles Center
Tue 12:34:20 AM 33.7131 -115.6603 223° Southwest 440 506 28,200 -1,475 Descending Los Angeles Center
Tue 12:35:21 AM 33.6247 -115.7575 223° Southwest 435 501 26,400 -1,820 Descending Los Angeles Center
Tue 12:36:22 AM 33.5569 -115.8667 233° Southwest 414 476 24,500 -1,659 Descending Los Angeles Center
Tue 12:37:24 AM 33.4761 -115.9636 225° Southwest 409 471 23,000 -1,463 Descending Los Angeles Center
Tue 12:38:25 AM 33.3889 -116.0506 220° Southwest 409 471 21,500 -1,525 Descending Los Angeles Center
Tue 12:39:26 AM 33.3053 -116.1381 221° Southwest 404 465 19,900 -1,970 Descending Los Angeles Center
Tue 12:40:39 AM 33.1917 -116.2556 221° Southwest 390 449 17,100 -2,284 Descending Los Angeles Center
Tue 12:41:40 AM 33.1133 -116.3350 220° Southwest 379 436 14,800 -2,146 Descending Los Angeles Center
Tue 12:42:42 AM 33.0419 -116.4072 220° Southwest 371 427 12,700 -1,707 Descending Los Angeles Center
Tue 12:43:43 AM 32.9594 -116.4706 213° Southwest 357 411 11,300 -1,180 Descending Los Angeles Center
Tue 12:44:44 AM 32.8758 -116.5164 205° Southwest 334 384 10,300 -984 Descending Los Angeles Center
Tue 12:45:45 AM 32.8028 -116.5592 206° Southwest 303 349 9,300 -984 Descending Los Angeles Center
Tue 12:46:46 AM 32.7181 -116.6053 205° Southwest 290 334 8,300 -1,180 Descending Los Angeles Center
Tue 12:47:47 AM 32.6592 -116.6575 217° Southwest 283 326 6,900 -1,180 Descending Los Angeles Center
Tue 12:48:48 AM 32.6603 -116.7425 271° West 268 308 5,900 -689 Descending Los Angeles Center
Tue 12:49:49 AM 32.6658 -116.8183 275° West 251 289 5,500 -466 Descending Los Angeles Center
Tue 12:50:44 AM 32.6667 -116.8833 271° West 213 245 5,000 -738 Descending Southern California TRACON
Tue 12:51:51 AM 32.6833 -116.9500 287° West 185 213 4,000 -995 Descending Southern California TRACON
Tue 12:53:51 AM 32.7000 -117.0667 280° West 191 220 1,900 -1,000 Descending Southern California TRACON
Tue 12:54:51 AM 32.7167 -117.1167 292° West 150 173 1,000 -750 Descending Southern California TRACON
Tue 12:55:51 AM 32.7333 -117.1667 292° West 132 152 400 -600 Descending Southern California TRACON

Login

Don't have an account? Register now (free) for customized features, flight alerts, and more!